sensor_id;sensor_type;location;lat;lon;timestamp;P1;durP1;ratioP1;P2;durP2;ratioP2
57842;SDS011;43673;51.058;3.734;2023-03-31T00:10:31;21.48;;;6.90;;
57842;SDS011;43673;51.058;3.734;2023-03-31T00:13:20;15.73;;;4.38;;
57842;SDS011;43673;51.058;3.734;2023-03-31T00:19:23;20.60;;;6.10;;
57842;SDS011;43673;51.058;3.734;2023-03-31T00:22:04;13.32;;;4.13;;
57842;SDS011;43673;51.058;3.734;2023-03-31T00:24:30;15.02;;;4.95;;
57842;SDS011;43673;51.058;3.734;2023-03-31T00:27:03;17.02;;;4.53;;
57842;SDS011;43673;51.058;3.734;2023-03-31T00:29:30;17.58;;;4.93;;
57842;SDS011;43673;51.058;3.734;2023-03-31T00:32:07;25.80;;;6.35;;
57842;SDS011;43673;51.058;3.734;2023-03-31T00:38:27;16.60;;;4.65;;
57842;SDS011;43673;51.058;3.734;2023-03-31T00:40:54;18.48;;;4.10;;
57842;SDS011;43673;51.058;3.734;2023-03-31T02:15:07;13.73;;;4.65;;
57842;SDS011;43673;51.058;3.734;2023-03-31T02:17:52;14.48;;;4.43;;
57842;SDS011;43673;51.058;3.734;2023-03-31T02:23:13;12.00;;;4.53;;
57842;SDS011;43673;51.058;3.734;2023-03-31T02:25:48;9.52;;;4.72;;
57842;SDS011;43673;51.058;3.734;2023-03-31T02:28:25;12.65;;;4.13;;
57842;SDS011;43673;51.058;3.734;2023-03-31T02:38:52;13.30;;;3.75;;
57842;SDS011;43673;51.058;3.734;2023-03-31T02:49:09;9.70;;;2.63;;
57842;SDS011;43673;51.058;3.734;2023-03-31T02:57:20;5.72;;;2.40;;
57842;SDS011;43673;51.058;3.734;2023-03-31T03:03:22;5.50;;;1.77;;
57842;SDS011;43673;51.058;3.734;2023-03-31T03:06:40;3.55;;;1.40;;
57842;SDS011;43673;51.058;3.734;2023-03-31T03:11:50;3.55;;;3.15;;
57842;SDS011;43673;51.058;3.734;2023-03-31T03:25:55;4.68;;;1.67;;
57842;SDS011;43673;51.058;3.734;2023-03-31T03:45:59;2.42;;;1.23;;
57842;SDS011;43673;51.058;3.734;2023-03-31T03:50:58;3.08;;;1.33;;
57842;SDS011;43673;51.058;3.734;2023-03-31T04:04:55;3.13;;;0.80;;
57842;SDS011;43673;51.058;3.734;2023-03-31T04:07:27;2.65;;;1.02;;
57842;SDS011;43673;51.058;3.734;2023-03-31T04:13:21;3.33;;;1.05;;
57842;SDS011;43673;51.058;3.734;2023-03-31T04:15:59;0.80;;;0.80;;
57842;SDS011;43673;51.058;3.734;2023-03-31T04:18:35;1.75;;;0.95;;
57842;SDS011;43673;51.058;3.734;2023-03-31T04:24:44;3.50;;;1.15;;
57842;SDS011;43673;51.058;3.734;2023-03-31T04:30:43;3.05;;;0.85;;
57842;SDS011;43673;51.058;3.734;2023-03-31T04:33:24;2.45;;;0.77;;
57842;SDS011;43673;51.058;3.734;2023-03-31T04:36:06;3.85;;;1.15;;
57842;SDS011;43673;51.058;3.734;2023-03-31T04:38:49;3.85;;;1.20;;
57842;SDS011;43673;51.058;3.734;2023-03-31T04:41:40;2.40;;;0.98;;
57842;SDS011;43673;51.058;3.734;2023-03-31T04:53:10;5.40;;;1.40;;
57842;SDS011;43673;51.058;3.734;2023-03-31T04:55:36;4.38;;;1.65;;
57842;SDS011;43673;51.058;3.734;2023-03-31T05:00:51;13.10;;;2.35;;
57842;SDS011;43673;51.058;3.734;2023-03-31T05:03:18;4.63;;;2.63;;
57842;SDS011;43673;51.058;3.734;2023-03-31T05:18:55;14.27;;;3.70;;
57842;SDS011;43673;51.058;3.734;2023-03-31T05:21:26;7.68;;;2.80;;
57842;SDS011;43673;51.058;3.734;2023-03-31T05:31:40;11.18;;;4.10;;
57842;SDS011;43673;51.058;3.734;2023-03-31T05:34:06;21.90;;;6.07;;
57842;SDS011;43673;51.058;3.734;2023-03-31T05:36:54;15.30;;;4.28;;
57842;SDS011;43673;51.058;3.734;2023-03-31T05:39:26;18.95;;;4.80;;
57842;SDS011;43673;51.058;3.734;2023-03-31T05:41:57;13.45;;;4.28;;
57842;SDS011;43673;51.058;3.734;2023-03-31T05:44:29;19.77;;;5.47;;
57842;SDS011;43673;51.058;3.734;2023-03-31T05:49:40;18.95;;;4.53;;
57842;SDS011;43673;51.058;3.734;2023-03-31T05:52:19;21.23;;;4.55;;
57842;SDS011;43673;51.058;3.734;2023-03-31T06:05:06;12.45;;;3.42;;
57842;SDS011;43673;51.058;3.734;2023-03-31T06:07:32;17.50;;;4.30;;
57842;SDS011;43673;51.058;3.734;2023-03-31T06:09:58;31.23;;;8.65;;
57842;SDS011;43673;51.058;3.734;2023-03-31T06:12:42;20.25;;;4.15;;
57842;SDS011;43673;51.058;3.734;2023-03-31T06:15:10;14.23;;;4.90;;
57842;SDS011;43673;51.058;3.734;2023-03-31T06:17:39;25.58;;;7.28;;
57842;SDS011;43673;51.058;3.734;2023-03-31T06:20:05;20.00;;;5.72;;
57842;SDS011;43673;51.058;3.734;2023-03-31T06:22:34;19.35;;;4.70;;
57842;SDS011;43673;51.058;3.734;2023-03-31T06:25:12;20.08;;;4.80;;
57842;SDS011;43673;51.058;3.734;2023-03-31T06:27:44;17.20;;;5.07;;
57842;SDS011;43673;51.058;3.734;2023-03-31T06:32:45;19.40;;;5.28;;
57842;SDS011;43673;51.058;3.734;2023-03-31T06:35:11;17.38;;;6.10;;
57842;SDS011;43673;51.058;3.734;2023-03-31T06:37:39;21.92;;;5.65;;
57842;SDS011;43673;51.058;3.734;2023-03-31T06:40:05;13.98;;;5.03;;
57842;SDS011;43673;51.058;3.734;2023-03-31T06:42:31;22.80;;;6.15;;
57842;SDS011;43673;51.058;3.734;2023-03-31T06:44:58;17.98;;;5.32;;
57842;SDS011;43673;51.058;3.734;2023-03-31T06:47:24;18.60;;;6.57;;
57842;SDS011;43673;51.058;3.734;2023-03-31T06:49:50;18.70;;;5.40;;
57842;SDS011;43673;51.058;3.734;2023-03-31T06:52:16;17.95;;;6.10;;
57842;SDS011;43673;51.058;3.734;2023-03-31T06:54:42;20.00;;;5.90;;
57842;SDS011;43673;51.058;3.734;2023-03-31T06:57:07;19.58;;;5.72;;
57842;SDS011;43673;51.058;3.734;2023-03-31T06:59:33;22.17;;;6.22;;
57842;SDS011;43673;51.058;3.734;2023-03-31T07:01:59;22.33;;;6.45;;
57842;SDS011;43673;51.058;3.734;2023-03-31T07:04:26;23.60;;;5.05;;
57842;SDS011;43673;51.058;3.734;2023-03-31T07:06:51;19.63;;;6.13;;
57842;SDS011;43673;51.058;3.734;2023-03-31T07:09:17;24.65;;;6.25;;
57842;SDS011;43673;51.058;3.734;2023-03-31T07:11:45;23.15;;;6.47;;
57842;SDS011;43673;51.058;3.734;2023-03-31T07:14:11;22.40;;;6.03;;
57842;SDS011;43673;51.058;3.734;2023-03-31T07:16:37;15.43;;;5.88;;
57842;SDS011;43673;51.058;3.734;2023-03-31T07:19:02;33.15;;;6.82;;
57842;SDS011;43673;51.058;3.734;2023-03-31T07:21:30;26.48;;;7.10;;
57842;SDS011;43673;51.058;3.734;2023-03-31T07:23:56;23.63;;;7.55;;
57842;SDS011;43673;51.058;3.734;2023-03-31T07:26:22;22.30;;;6.30;;
57842;SDS011;43673;51.058;3.734;2023-03-31T07:28:48;25.02;;;6.05;;
57842;SDS011;43673;51.058;3.734;2023-03-31T07:31:15;16.92;;;5.70;;
57842;SDS011;43673;51.058;3.734;2023-03-31T07:33:41;21.50;;;5.72;;
57842;SDS011;43673;51.058;3.734;2023-03-31T07:36:07;23.50;;;6.60;;
57842;SDS011;43673;51.058;3.734;2023-03-31T07:38:34;21.52;;;5.82;;
57842;SDS011;43673;51.058;3.734;2023-03-31T07:41:00;29.80;;;7.30;;
57842;SDS011;43673;51.058;3.734;2023-03-31T07:43:26;22.13;;;6.22;;
57842;SDS011;43673;51.058;3.734;2023-03-31T07:45:52;20.63;;;5.70;;
57842;SDS011;43673;51.058;3.734;2023-03-31T07:48:18;19.48;;;5.07;;
57842;SDS011;43673;51.058;3.734;2023-03-31T07:50:44;24.15;;;7.00;;
57842;SDS011;43673;51.058;3.734;2023-03-31T07:53:11;27.55;;;6.80;;
57842;SDS011;43673;51.058;3.734;2023-03-31T07:55:39;26.63;;;7.95;;
57842;SDS011;43673;51.058;3.734;2023-03-31T07:58:04;27.42;;;7.35;;
57842;SDS011;43673;51.058;3.734;2023-03-31T08:00:30;27.58;;;7.32;;
57842;SDS011;43673;51.058;3.734;2023-03-31T08:02:56;30.75;;;6.20;;
57842;SDS011;43673;51.058;3.734;2023-03-31T08:05:22;21.33;;;5.78;;
57842;SDS011;43673;51.058;3.734;2023-03-31T08:07:53;20.70;;;5.28;;
57842;SDS011;43673;51.058;3.734;2023-03-31T08:10:21;27.95;;;6.13;;
57842;SDS011;43673;51.058;3.734;2023-03-31T08:12:49;27.95;;;6.82;;
57842;SDS011;43673;51.058;3.734;2023-03-31T08:15:15;27.00;;;6.07;;
57842;SDS011;43673;51.058;3.734;2023-03-31T08:17:44;23.23;;;6.13;;
57842;SDS011;43673;51.058;3.734;2023-03-31T08:20:11;24.27;;;6.57;;
57842;SDS011;43673;51.058;3.734;2023-03-31T08:22:37;21.77;;;7.07;;
57842;SDS011;43673;51.058;3.734;2023-03-31T08:25:05;20.98;;;6.55;;
57842;SDS011;43673;51.058;3.734;2023-03-31T08:27:36;22.50;;;5.65;;
57842;SDS011;43673;51.058;3.734;2023-03-31T08:30:07;18.13;;;5.13;;
57842;SDS011;43673;51.058;3.734;2023-03-31T08:32:34;18.15;;;6.68;;
57842;SDS011;43673;51.058;3.734;2023-03-31T08:35:00;16.23;;;5.03;;
57842;SDS011;43673;51.058;3.734;2023-03-31T08:37:26;20.67;;;4.55;;
57842;SDS011;43673;51.058;3.734;2023-03-31T08:39:53;17.60;;;4.43;;
57842;SDS011;43673;51.058;3.734;2023-03-31T08:42:37;16.42;;;5.60;;
57842;SDS011;43673;51.058;3.734;2023-03-31T08:47:46;19.40;;;6.32;;
57842;SDS011;43673;51.058;3.734;2023-03-31T08:50:16;14.18;;;4.82;;
57842;SDS011;43673;51.058;3.734;2023-03-31T08:52:54;12.80;;;5.40;;
57842;SDS011;43673;51.058;3.734;2023-03-31T08:55:30;15.13;;;4.45;;
57842;SDS011;43673;51.058;3.734;2023-03-31T09:00:46;22.65;;;4.93;;
57842;SDS011;43673;51.058;3.734;2023-03-31T09:06:35;19.55;;;5.97;;
57842;SDS011;43673;51.058;3.734;2023-03-31T09:09:06;24.92;;;5.43;;
57842;SDS011;43673;51.058;3.734;2023-03-31T09:11:38;23.30;;;5.88;;
57842;SDS011;43673;51.058;3.734;2023-03-31T09:19:51;20.20;;;7.22;;
57842;SDS011;43673;51.058;3.734;2023-03-31T09:22:25;22.42;;;6.15;;
57842;SDS011;43673;51.058;3.734;2023-03-31T09:24:58;16.08;;;5.20;;
57842;SDS011;43673;51.058;3.734;2023-03-31T09:28:07;15.50;;;4.65;;
57842;SDS011;43673;51.058;3.734;2023-03-31T09:30:42;24.27;;;6.03;;
57842;SDS011;43673;51.058;3.734;2023-03-31T09:33:14;20.15;;;6.00;;
57842;SDS011;43673;51.058;3.734;2023-03-31T09:35:43;18.85;;;5.30;;
57842;SDS011;43673;51.058;3.734;2023-03-31T09:38:10;24.95;;;5.50;;
57842;SDS011;43673;51.058;3.734;2023-03-31T09:40:37;19.83;;;5.28;;
57842;SDS011;43673;51.058;3.734;2023-03-31T09:43:08;21.95;;;4.80;;
57842;SDS011;43673;51.058;3.734;2023-03-31T09:45:51;26.48;;;7.72;;
57842;SDS011;43673;51.058;3.734;2023-03-31T09:48:25;21.48;;;6.00;;
57842;SDS011;43673;51.058;3.734;2023-03-31T09:50:57;25.35;;;8.32;;
57842;SDS011;43673;51.058;3.734;2023-03-31T09:53:55;23.48;;;5.82;;
57842;SDS011;43673;51.058;3.734;2023-03-31T09:56:31;17.42;;;6.43;;
57842;SDS011;43673;51.058;3.734;2023-03-31T09:59:11;21.17;;;5.43;;
57842;SDS011;43673;51.058;3.734;2023-03-31T10:01:48;28.70;;;6.65;;
57842;SDS011;43673;51.058;3.734;2023-03-31T10:04:24;23.70;;;5.90;;
57842;SDS011;43673;51.058;3.734;2023-03-31T10:06:53;23.85;;;7.15;;
57842;SDS011;43673;51.058;3.734;2023-03-31T10:09:23;24.92;;;7.03;;
57842;SDS011;43673;51.058;3.734;2023-03-31T10:12:07;34.80;;;6.72;;
57842;SDS011;43673;51.058;3.734;2023-03-31T10:14:46;21.73;;;5.93;;
57842;SDS011;43673;51.058;3.734;2023-03-31T10:17:15;22.00;;;6.38;;
57842;SDS011;43673;51.058;3.734;2023-03-31T10:19:56;22.70;;;5.53;;
57842;SDS011;43673;51.058;3.734;2023-03-31T10:22:29;25.42;;;6.40;;
57842;SDS011;43673;51.058;3.734;2023-03-31T10:27:31;21.30;;;6.32;;
57842;SDS011;43673;51.058;3.734;2023-03-31T10:29:58;21.15;;;5.60;;
57842;SDS011;43673;51.058;3.734;2023-03-31T10:35:31;22.92;;;6.35;;
57842;SDS011;43673;51.058;3.734;2023-03-31T10:44:05;17.08;;;6.55;;
57842;SDS011;43673;51.058;3.734;2023-03-31T10:49:35;16.00;;;5.65;;
57842;SDS011;43673;51.058;3.734;2023-03-31T10:52:10;22.25;;;5.43;;
57842;SDS011;43673;51.058;3.734;2023-03-31T10:54:50;19.40;;;5.75;;
57842;SDS011;43673;51.058;3.734;2023-03-31T10:57:21;18.52;;;5.15;;
57842;SDS011;43673;51.058;3.734;2023-03-31T11:00:09;15.73;;;4.55;;
57842;SDS011;43673;51.058;3.734;2023-03-31T11:05:14;14.48;;;4.22;;
57842;SDS011;43673;51.058;3.734;2023-03-31T11:44:03;16.25;;;5.03;;
57842;SDS011;43673;51.058;3.734;2023-03-31T11:52:56;12.48;;;4.97;;
57842;SDS011;43673;51.058;3.734;2023-03-31T12:04:54;12.38;;;3.88;;
57842;SDS011;43673;51.058;3.734;2023-03-31T12:07:43;5.78;;;2.40;;
57842;SDS011;43673;51.058;3.734;2023-03-31T12:16:39;6.65;;;2.38;;
57842;SDS011;43673;51.058;3.734;2023-03-31T12:22:34;4.40;;;1.77;;
57842;SDS011;43673;51.058;3.734;2023-03-31T12:25:17;6.78;;;2.33;;
57842;SDS011;43673;51.058;3.734;2023-03-31T12:27:50;3.67;;;1.65;;
57842;SDS011;43673;51.058;3.734;2023-03-31T12:32:55;7.85;;;2.25;;
57842;SDS011;43673;51.058;3.734;2023-03-31T12:45:00;7.65;;;2.80;;
57842;SDS011;43673;51.058;3.734;2023-03-31T13:01:06;5.65;;;2.30;;
57842;SDS011;43673;51.058;3.734;2023-03-31T13:06:45;5.13;;;1.52;;
57842;SDS011;43673;51.058;3.734;2023-03-31T13:11:54;7.07;;;2.42;;
57842;SDS011;43673;51.058;3.734;2023-03-31T13:19:54;5.97;;;1.90;;
57842;SDS011;43673;51.058;3.734;2023-03-31T13:22:45;6.27;;;1.83;;
57842;SDS011;43673;51.058;3.734;2023-03-31T13:25:34;8.57;;;2.58;;
57842;SDS011;43673;51.058;3.734;2023-03-31T13:28:37;5.25;;;2.80;;
57842;SDS011;43673;51.058;3.734;2023-03-31T13:31:13;4.85;;;2.55;;
57842;SDS011;43673;51.058;3.734;2023-03-31T13:47:45;4.80;;;2.00;;
57842;SDS011;43673;51.058;3.734;2023-03-31T14:08:10;5.57;;;2.20;;
57842;SDS011;43673;51.058;3.734;2023-03-31T14:13:58;6.13;;;2.88;;
57842;SDS011;43673;51.058;3.734;2023-03-31T14:16:30;12.98;;;2.85;;
57842;SDS011;43673;51.058;3.734;2023-03-31T14:36:20;6.85;;;2.35;;
57842;SDS011;43673;51.058;3.734;2023-03-31T14:38:53;11.32;;;2.88;;
57842;SDS011;43673;51.058;3.734;2023-03-31T14:41:27;4.45;;;2.20;;
57842;SDS011;43673;51.058;3.734;2023-03-31T14:43:56;8.52;;;2.30;;
57842;SDS011;43673;51.058;3.734;2023-03-31T14:46:25;4.95;;;2.40;;
57842;SDS011;43673;51.058;3.734;2023-03-31T14:48:53;10.60;;;3.60;;
57842;SDS011;43673;51.058;3.734;2023-03-31T14:51:24;10.10;;;2.85;;
57842;SDS011;43673;51.058;3.734;2023-03-31T14:53:56;7.68;;;2.67;;
57842;SDS011;43673;51.058;3.734;2023-03-31T14:56:25;6.57;;;2.28;;
57842;SDS011;43673;51.058;3.734;2023-03-31T14:58:59;13.15;;;3.13;;
57842;SDS011;43673;51.058;3.734;2023-03-31T15:01:28;6.78;;;3.03;;
57842;SDS011;43673;51.058;3.734;2023-03-31T15:06:39;7.00;;;3.40;;
57842;SDS011;43673;51.058;3.734;2023-03-31T15:09:06;9.73;;;3.08;;
57842;SDS011;43673;51.058;3.734;2023-03-31T15:11:37;17.98;;;5.93;;
57842;SDS011;43673;51.058;3.734;2023-03-31T15:14:02;11.88;;;3.42;;
57842;SDS011;43673;51.058;3.734;2023-03-31T15:16:36;16.67;;;4.55;;
57842;SDS011;43673;51.058;3.734;2023-03-31T15:19:16;18.52;;;3.28;;
57842;SDS011;43673;51.058;3.734;2023-03-31T15:21:54;20.25;;;5.43;;
57842;SDS011;43673;51.058;3.734;2023-03-31T15:24:28;16.30;;;4.72;;
57842;SDS011;43673;51.058;3.734;2023-03-31T15:27:08;18.20;;;6.25;;
57842;SDS011;43673;51.058;3.734;2023-03-31T15:29:51;16.63;;;4.63;;
57842;SDS011;43673;51.058;3.734;2023-03-31T15:32:24;28.30;;;6.10;;
57842;SDS011;43673;51.058;3.734;2023-03-31T15:34:51;20.88;;;5.10;;
57842;SDS011;43673;51.058;3.734;2023-03-31T15:37:23;14.52;;;3.75;;
57842;SDS011;43673;51.058;3.734;2023-03-31T15:39:53;19.23;;;5.13;;
57842;SDS011;43673;51.058;3.734;2023-03-31T15:42:22;29.73;;;6.57;;
57842;SDS011;43673;51.058;3.734;2023-03-31T15:47:20;17.10;;;4.90;;
57842;SDS011;43673;51.058;3.734;2023-03-31T15:50:03;18.75;;;5.10;;
57842;SDS011;43673;51.058;3.734;2023-03-31T15:52:44;26.85;;;6.10;;
57842;SDS011;43673;51.058;3.734;2023-03-31T15:55:24;16.70;;;5.68;;
57842;SDS011;43673;51.058;3.734;2023-03-31T15:57:53;17.60;;;5.57;;
57842;SDS011;43673;51.058;3.734;2023-03-31T16:03:03;17.98;;;5.65;;
57842;SDS011;43673;51.058;3.734;2023-03-31T16:05:41;17.80;;;4.78;;
57842;SDS011;43673;51.058;3.734;2023-03-31T16:11:03;15.77;;;6.28;;
57842;SDS011;43673;51.058;3.734;2023-03-31T16:13:38;18.52;;;7.07;;
57842;SDS011;43673;51.058;3.734;2023-03-31T16:16:09;24.45;;;7.50;;
57842;SDS011;43673;51.058;3.734;2023-03-31T16:18:39;25.05;;;5.30;;
57842;SDS011;43673;51.058;3.734;2023-03-31T16:21:09;20.90;;;6.00;;
57842;SDS011;43673;51.058;3.734;2023-03-31T16:23:37;22.00;;;6.13;;
57842;SDS011;43673;51.058;3.734;2023-03-31T16:26:08;22.60;;;5.95;;
57842;SDS011;43673;51.058;3.734;2023-03-31T16:28:36;21.83;;;7.40;;
57842;SDS011;43673;51.058;3.734;2023-03-31T16:31:26;18.15;;;7.05;;
57842;SDS011;43673;51.058;3.734;2023-03-31T16:34:00;25.17;;;6.07;;
57842;SDS011;43673;51.058;3.734;2023-03-31T16:36:28;34.60;;;9.57;;
57842;SDS011;43673;51.058;3.734;2023-03-31T16:38:55;16.88;;;5.65;;
57842;SDS011;43673;51.058;3.734;2023-03-31T16:41:22;25.27;;;7.60;;
57842;SDS011;43673;51.058;3.734;2023-03-31T16:43:48;25.10;;;5.57;;
57842;SDS011;43673;51.058;3.734;2023-03-31T16:46:16;19.90;;;6.80;;
57842;SDS011;43673;51.058;3.734;2023-03-31T16:48:42;24.02;;;6.25;;
57842;SDS011;43673;51.058;3.734;2023-03-31T16:51:08;24.30;;;6.15;;
57842;SDS011;43673;51.058;3.734;2023-03-31T16:53:34;24.20;;;6.97;;
57842;SDS011;43673;51.058;3.734;2023-03-31T16:56:01;19.25;;;6.78;;
57842;SDS011;43673;51.058;3.734;2023-03-31T16:58:28;19.95;;;8.43;;
57842;SDS011;43673;51.058;3.734;2023-03-31T17:00:55;24.67;;;8.30;;
57842;SDS011;43673;51.058;3.734;2023-03-31T17:03:21;20.58;;;9.05;;
57842;SDS011;43673;51.058;3.734;2023-03-31T17:05:49;30.13;;;7.22;;
57842;SDS011;43673;51.058;3.734;2023-03-31T17:08:17;22.88;;;6.40;;
57842;SDS011;43673;51.058;3.734;2023-03-31T17:10:59;14.75;;;5.30;;
57842;SDS011;43673;51.058;3.734;2023-03-31T17:13:27;21.63;;;6.28;;
57842;SDS011;43673;51.058;3.734;2023-03-31T17:15:54;17.83;;;6.18;;
57842;SDS011;43673;51.058;3.734;2023-03-31T17:18:20;16.13;;;5.10;;
57842;SDS011;43673;51.058;3.734;2023-03-31T17:20:46;22.35;;;6.30;;
57842;SDS011;43673;51.058;3.734;2023-03-31T17:23:12;20.35;;;5.88;;
57842;SDS011;43673;51.058;3.734;2023-03-31T17:25:45;17.60;;;6.20;;
57842;SDS011;43673;51.058;3.734;2023-03-31T17:28:12;20.55;;;6.32;;
57842;SDS011;43673;51.058;3.734;2023-03-31T17:30:38;26.50;;;7.45;;
57842;SDS011;43673;51.058;3.734;2023-03-31T17:33:03;25.45;;;6.65;;
57842;SDS011;43673;51.058;3.734;2023-03-31T17:35:29;21.77;;;6.55;;
57842;SDS011;43673;51.058;3.734;2023-03-31T17:37:55;27.50;;;8.02;;
57842;SDS011;43673;51.058;3.734;2023-03-31T17:40:22;27.52;;;7.35;;
57842;SDS011;43673;51.058;3.734;2023-03-31T17:42:48;26.35;;;6.88;;
57842;SDS011;43673;51.058;3.734;2023-03-31T17:45:14;32.15;;;7.97;;
57842;SDS011;43673;51.058;3.734;2023-03-31T17:47:40;29.38;;;7.65;;
57842;SDS011;43673;51.058;3.734;2023-03-31T17:50:10;29.85;;;6.63;;
57842;SDS011;43673;51.058;3.734;2023-03-31T17:52:36;17.38;;;6.03;;
57842;SDS011;43673;51.058;3.734;2023-03-31T17:55:03;21.00;;;6.47;;
57842;SDS011;43673;51.058;3.734;2023-03-31T17:57:29;27.48;;;6.75;;
57842;SDS011;43673;51.058;3.734;2023-03-31T17:59:56;28.45;;;8.60;;
57842;SDS011;43673;51.058;3.734;2023-03-31T18:02:22;28.33;;;7.88;;
57842;SDS011;43673;51.058;3.734;2023-03-31T18:04:48;27.98;;;7.30;;
57842;SDS011;43673;51.058;3.734;2023-03-31T18:07:14;22.75;;;7.07;;
57842;SDS011;43673;51.058;3.734;2023-03-31T18:09:42;36.38;;;7.53;;
57842;SDS011;43673;51.058;3.734;2023-03-31T18:12:09;31.58;;;6.88;;
57842;SDS011;43673;51.058;3.734;2023-03-31T18:14:35;26.30;;;7.30;;
57842;SDS011;43673;51.058;3.734;2023-03-31T18:17:01;40.33;;;9.82;;
57842;SDS011;43673;51.058;3.734;2023-03-31T18:19:27;33.92;;;7.95;;
57842;SDS011;43673;51.058;3.734;2023-03-31T18:21:53;28.48;;;8.23;;
57842;SDS011;43673;51.058;3.734;2023-03-31T18:24:19;34.65;;;8.63;;
57842;SDS011;43673;51.058;3.734;2023-03-31T18:26:46;34.95;;;7.85;;
57842;SDS011;43673;51.058;3.734;2023-03-31T18:29:12;31.90;;;7.35;;
57842;SDS011;43673;51.058;3.734;2023-03-31T18:31:39;36.53;;;9.75;;
57842;SDS011;43673;51.058;3.734;2023-03-31T18:34:04;26.95;;;9.00;;
57842;SDS011;43673;51.058;3.734;2023-03-31T18:36:30;23.38;;;7.05;;
57842;SDS011;43673;51.058;3.734;2023-03-31T18:38:56;28.35;;;7.75;;
57842;SDS011;43673;51.058;3.734;2023-03-31T18:41:22;35.53;;;8.40;;
57842;SDS011;43673;51.058;3.734;2023-03-31T18:43:49;19.33;;;7.20;;
57842;SDS011;43673;51.058;3.734;2023-03-31T18:46:16;30.83;;;6.80;;
57842;SDS011;43673;51.058;3.734;2023-03-31T18:48:43;26.38;;;7.65;;
57842;SDS011;43673;51.058;3.734;2023-03-31T18:51:09;21.17;;;6.30;;
57842;SDS011;43673;51.058;3.734;2023-03-31T18:53:35;22.50;;;6.53;;
57842;SDS011;43673;51.058;3.734;2023-03-31T18:56:01;21.90;;;7.10;;
57842;SDS011;43673;51.058;3.734;2023-03-31T18:58:28;21.63;;;7.22;;
57842;SDS011;43673;51.058;3.734;2023-03-31T19:00:55;22.92;;;5.90;;
57842;SDS011;43673;51.058;3.734;2023-03-31T19:03:21;26.70;;;7.05;;
57842;SDS011;43673;51.058;3.734;2023-03-31T19:05:47;23.40;;;8.27;;
57842;SDS011;43673;51.058;3.734;2023-03-31T19:08:14;26.70;;;7.85;;
57842;SDS011;43673;51.058;3.734;2023-03-31T19:10:40;26.80;;;6.28;;
57842;SDS011;43673;51.058;3.734;2023-03-31T19:13:06;24.73;;;6.88;;
57842;SDS011;43673;51.058;3.734;2023-03-31T19:15:32;22.42;;;6.82;;
57842;SDS011;43673;51.058;3.734;2023-03-31T19:18:01;22.27;;;6.57;;
57842;SDS011;43673;51.058;3.734;2023-03-31T19:20:27;20.38;;;6.45;;
57842;SDS011;43673;51.058;3.734;2023-03-31T19:22:53;18.52;;;6.32;;
57842;SDS011;43673;51.058;3.734;2023-03-31T19:25:19;15.73;;;5.43;;
57842;SDS011;43673;51.058;3.734;2023-03-31T19:27:45;17.23;;;6.35;;
57842;SDS011;43673;51.058;3.734;2023-03-31T19:30:21;21.52;;;5.95;;
57842;SDS011;43673;51.058;3.734;2023-03-31T19:32:52;21.67;;;6.32;;
57842;SDS011;43673;51.058;3.734;2023-03-31T19:35:18;22.75;;;6.65;;
57842;SDS011;43673;51.058;3.734;2023-03-31T19:37:45;29.30;;;8.38;;
57842;SDS011;43673;51.058;3.734;2023-03-31T19:40:11;26.63;;;7.38;;
57842;SDS011;43673;51.058;3.734;2023-03-31T19:42:37;22.77;;;6.40;;
57842;SDS011;43673;51.058;3.734;2023-03-31T19:45:03;15.07;;;5.03;;
57842;SDS011;43673;51.058;3.734;2023-03-31T19:47:29;28.65;;;7.22;;
57842;SDS011;43673;51.058;3.734;2023-03-31T19:49:55;20.67;;;7.32;;
57842;SDS011;43673;51.058;3.734;2023-03-31T19:52:21;18.67;;;5.90;;
57842;SDS011;43673;51.058;3.734;2023-03-31T19:54:47;19.75;;;6.22;;
57842;SDS011;43673;51.058;3.734;2023-03-31T19:57:12;18.55;;;5.43;;
57842;SDS011;43673;51.058;3.734;2023-03-31T19:59:38;17.85;;;6.03;;
57842;SDS011;43673;51.058;3.734;2023-03-31T20:02:04;24.38;;;7.07;;
57842;SDS011;43673;51.058;3.734;2023-03-31T20:04:30;19.30;;;5.78;;
57842;SDS011;43673;51.058;3.734;2023-03-31T20:06:56;25.23;;;6.43;;
57842;SDS011;43673;51.058;3.734;2023-03-31T20:09:23;20.02;;;5.82;;
57842;SDS011;43673;51.058;3.734;2023-03-31T20:11:49;23.08;;;6.47;;
57842;SDS011;43673;51.058;3.734;2023-03-31T20:14:17;24.58;;;7.50;;
57842;SDS011;43673;51.058;3.734;2023-03-31T20:16:43;21.95;;;6.70;;
57842;SDS011;43673;51.058;3.734;2023-03-31T20:19:10;19.65;;;7.40;;
57842;SDS011;43673;51.058;3.734;2023-03-31T20:21:36;24.60;;;8.40;;
57842;SDS011;43673;51.058;3.734;2023-03-31T20:24:03;27.95;;;7.75;;
57842;SDS011;43673;51.058;3.734;2023-03-31T20:26:30;26.80;;;8.73;;
57842;SDS011;43673;51.058;3.734;2023-03-31T20:28:58;29.15;;;6.43;;
57842;SDS011;43673;51.058;3.734;2023-03-31T20:31:27;33.55;;;9.20;;
57842;SDS011;43673;51.058;3.734;2023-03-31T20:33:58;18.58;;;6.38;;
57842;SDS011;43673;51.058;3.734;2023-03-31T20:36:36;27.73;;;6.53;;
57842;SDS011;43673;51.058;3.734;2023-03-31T20:39:03;24.80;;;8.32;;
57842;SDS011;43673;51.058;3.734;2023-03-31T20:41:30;24.83;;;6.45;;
57842;SDS011;43673;51.058;3.734;2023-03-31T20:43:58;30.48;;;6.93;;
57842;SDS011;43673;51.058;3.734;2023-03-31T20:46:25;18.45;;;7.25;;
57842;SDS011;43673;51.058;3.734;2023-03-31T20:48:51;29.95;;;8.38;;
57842;SDS011;43673;51.058;3.734;2023-03-31T20:51:20;21.40;;;6.80;;
57842;SDS011;43673;51.058;3.734;2023-03-31T20:53:49;24.58;;;7.22;;
57842;SDS011;43673;51.058;3.734;2023-03-31T20:56:24;25.42;;;7.72;;
57842;SDS011;43673;51.058;3.734;2023-03-31T20:58:55;21.00;;;6.53;;
57842;SDS011;43673;51.058;3.734;2023-03-31T21:01:23;25.20;;;6.57;;
57842;SDS011;43673;51.058;3.734;2023-03-31T21:03:50;40.65;;;11.10;;
57842;SDS011;43673;51.058;3.734;2023-03-31T21:06:17;30.02;;;8.20;;
57842;SDS011;43673;51.058;3.734;2023-03-31T21:08:44;21.05;;;6.57;;
57842;SDS011;43673;51.058;3.734;2023-03-31T21:11:14;21.52;;;6.57;;
57842;SDS011;43673;51.058;3.734;2023-03-31T21:13:41;24.48;;;6.22;;
57842;SDS011;43673;51.058;3.734;2023-03-31T21:16:08;20.98;;;6.30;;
57842;SDS011;43673;51.058;3.734;2023-03-31T21:18:35;24.48;;;7.43;;
57842;SDS011;43673;51.058;3.734;2023-03-31T21:21:02;25.95;;;7.85;;
57842;SDS011;43673;51.058;3.734;2023-03-31T21:23:36;23.45;;;7.43;;
57842;SDS011;43673;51.058;3.734;2023-03-31T21:26:03;19.80;;;7.18;;
57842;SDS011;43673;51.058;3.734;2023-03-31T21:28:31;26.10;;;7.13;;
57842;SDS011;43673;51.058;3.734;2023-03-31T21:31:03;18.23;;;6.22;;
57842;SDS011;43673;51.058;3.734;2023-03-31T21:33:29;23.15;;;7.95;;
57842;SDS011;43673;51.058;3.734;2023-03-31T21:35:56;23.75;;;7.28;;
57842;SDS011;43673;51.058;3.734;2023-03-31T21:38:23;20.60;;;6.07;;
57842;SDS011;43673;51.058;3.734;2023-03-31T21:40:49;23.92;;;9.40;;
57842;SDS011;43673;51.058;3.734;2023-03-31T21:43:16;19.80;;;5.95;;
57842;SDS011;43673;51.058;3.734;2023-03-31T21:45:43;15.75;;;6.53;;
57842;SDS011;43673;51.058;3.734;2023-03-31T21:48:09;23.75;;;6.05;;
57842;SDS011;43673;51.058;3.734;2023-03-31T21:50:36;17.15;;;6.07;;
57842;SDS011;43673;51.058;3.734;2023-03-31T21:53:03;18.70;;;5.03;;
57842;SDS011;43673;51.058;3.734;2023-03-31T21:55:31;23.98;;;6.15;;
57842;SDS011;43673;51.058;3.734;2023-03-31T21:57:57;13.30;;;5.55;;
57842;SDS011;43673;51.058;3.734;2023-03-31T22:00:23;19.67;;;6.35;;
57842;SDS011;43673;51.058;3.734;2023-03-31T22:02:50;22.63;;;7.57;;
57842;SDS011;43673;51.058;3.734;2023-03-31T22:05:17;20.50;;;5.35;;
57842;SDS011;43673;51.058;3.734;2023-03-31T22:07:42;16.15;;;5.30;;